Anita, Pennsylvania
Current Conditions -  °F | °C
As of 4:53 AM on Saturday 01 Nov 2014 (Local Time) from KDUJ Reporting Station
Overcast Overcast  
Wind Chill: 32°   Ceiling: 4300
Heat Index: 37°   Visibility: 10mi
Dew Point: 36°   Wind: 7mph
Humidity: 96%   Direction: 20°NNE
Pressure: 29.87"   Gusts: NA
Location:  41°N, 78.96°W
Report Text: KDUJ 010853Z AUTO 02006KT 10SM OVC043 03/02 A2987 RMK AO2 SLP127 T00280022 53001
Loading
Personal Weather Stations






























Interactive Weather Map
Tropical Storm Tracking
New forecast layout! Learn more

10-Day Weather Forecast

Advertisements
Track Severe Weather on mobile